sensor_id;sensor_type;location;lat;lon;timestamp;temperature;humidity
32502;DHT22;18952;52.516;13.460;2023-04-01T00:02:23;8.70;99.90
32502;DHT22;18952;52.516;13.460;2023-04-01T00:04:50;8.80;99.90
32502;DHT22;18952;52.516;13.460;2023-04-01T00:07:17;8.80;99.90
32502;DHT22;18952;52.516;13.460;2023-04-01T00:09:43;8.80;99.90
32502;DHT22;18952;52.516;13.460;2023-04-01T00:12:10;8.80;99.90
32502;DHT22;18952;52.516;13.460;2023-04-01T00:14:37;8.80;99.90
32502;DHT22;18952;52.516;13.460;2023-04-01T00:17:04;8.80;99.90
32502;DHT22;18952;52.516;13.460;2023-04-01T00:19:30;8.80;99.90
32502;DHT22;18952;52.516;13.460;2023-04-01T00:21:57;8.80;99.90
32502;DHT22;18952;52.516;13.460;2023-04-01T00:24:24;8.80;99.90
32502;DHT22;18952;52.516;13.460;2023-04-01T00:26:51;8.80;99.90
32502;DHT22;18952;52.516;13.460;2023-04-01T00:29:18;8.80;99.90
32502;DHT22;18952;52.516;13.460;2023-04-01T00:31:44;8.80;99.90
32502;DHT22;18952;52.516;13.460;2023-04-01T00:34:12;8.80;99.90
32502;DHT22;18952;52.516;13.460;2023-04-01T00:36:39;8.80;99.90
32502;DHT22;18952;52.516;13.460;2023-04-01T00:39:06;8.80;99.90
32502;DHT22;18952;52.516;13.460;2023-04-01T00:41:32;8.80;99.90
32502;DHT22;18952;52.516;13.460;2023-04-01T00:46:45;8.80;99.90
32502;DHT22;18952;52.516;13.460;2023-04-01T00:49:13;8.80;99.90
32502;DHT22;18952;52.516;13.460;2023-04-01T00:51:41;8.90;99.90
32502;DHT22;18952;52.516;13.460;2023-04-01T00:54:08;8.90;99.90
32502;DHT22;18952;52.516;13.460;2023-04-01T00:56:39;8.90;99.90
32502;DHT22;18952;52.516;13.460;2023-04-01T00:59:11;9.00;99.90
32502;DHT22;18952;52.516;13.460;2023-04-01T01:01:39;9.00;99.90
32502;DHT22;18952;52.516;13.460;2023-04-01T01:04:07;8.90;99.90
32502;DHT22;18952;52.516;13.460;2023-04-01T01:06:47;9.00;99.90
32502;DHT22;18952;52.516;13.460;2023-04-01T01:12:34;8.90;99.90
32502;DHT22;18952;52.516;13.460;2023-04-01T01:20:49;8.80;99.90
32502;DHT22;18952;52.516;13.460;2023-04-01T01:24:14;8.80;99.90
32502;DHT22;18952;52.516;13.460;2023-04-01T01:26:59;8.90;99.90
32502;DHT22;18952;52.516;13.460;2023-04-01T01:37:29;8.90;99.90
32502;DHT22;18952;52.516;13.460;2023-04-01T01:40:01;8.90;99.90
32502;DHT22;18952;52.516;13.460;2023-04-01T01:42:31;8.90;99.90
32502;DHT22;18952;52.516;13.460;2023-04-01T01:44:59;8.90;99.90
32502;DHT22;18952;52.516;13.460;2023-04-01T01:47:28;8.80;99.90
32502;DHT22;18952;52.516;13.460;2023-04-01T01:49:56;8.80;99.90
32502;DHT22;18952;52.516;13.460;2023-04-01T01:52:24;8.80;99.90
32502;DHT22;18952;52.516;13.460;2023-04-01T01:54:53;8.80;99.90
32502;DHT22;18952;52.516;13.460;2023-04-01T01:57:24;8.70;99.90
32502;DHT22;18952;52.516;13.460;2023-04-01T01:59:55;8.80;99.90
32502;DHT22;18952;52.516;13.460;2023-04-01T02:02:23;8.80;99.90
32502;DHT22;18952;52.516;13.460;2023-04-01T02:04:51;8.80;99.90
32502;DHT22;18952;52.516;13.460;2023-04-01T02:07:24;8.80;99.90
32502;DHT22;18952;52.516;13.460;2023-04-01T02:09:52;8.70;99.90
32502;DHT22;18952;52.516;13.460;2023-04-01T02:12:21;8.70;99.90
32502;DHT22;18952;52.516;13.460;2023-04-01T02:15:08;8.80;99.90
32502;DHT22;18952;52.516;13.460;2023-04-01T02:17:39;8.80;99.90
32502;DHT22;18952;52.516;13.460;2023-04-01T02:20:20;8.70;99.90
32502;DHT22;18952;52.516;13.460;2023-04-01T02:22:51;8.70;99.90
32502;DHT22;18952;52.516;13.460;2023-04-01T02:25:22;8.70;99.90
32502;DHT22;18952;52.516;13.460;2023-04-01T02:27:50;8.70;99.90
32502;DHT22;18952;52.516;13.460;2023-04-01T02:30:17;8.70;99.90
32502;DHT22;18952;52.516;13.460;2023-04-01T02:32:44;8.70;99.90
32502;DHT22;18952;52.516;13.460;2023-04-01T02:35:13;8.70;99.90
32502;DHT22;18952;52.516;13.460;2023-04-01T02:37:42;8.70;99.90
32502;DHT22;18952;52.516;13.460;2023-04-01T02:40:12;8.60;99.90
32502;DHT22;18952;52.516;13.460;2023-04-01T02:42:39;8.60;99.90
32502;DHT22;18952;52.516;13.460;2023-04-01T02:45:07;8.60;99.90
32502;DHT22;18952;52.516;13.460;2023-04-01T02:47:34;8.50;99.90
32502;DHT22;18952;52.516;13.460;2023-04-01T02:50:01;8.50;99.90
32502;DHT22;18952;52.516;13.460;2023-04-01T02:52:29;8.50;99.90
32502;DHT22;18952;52.516;13.460;2023-04-01T02:54:56;8.50;99.90
32502;DHT22;18952;52.516;13.460;2023-04-01T02:57:23;8.50;99.90
32502;DHT22;18952;52.516;13.460;2023-04-01T02:59:50;8.60;99.90
32502;DHT22;18952;52.516;13.460;2023-04-01T03:02:17;8.60;99.90
32502;DHT22;18952;52.516;13.460;2023-04-01T03:04:44;8.60;99.90
32502;DHT22;18952;52.516;13.460;2023-04-01T03:07:11;8.60;99.90
32502;DHT22;18952;52.516;13.460;2023-04-01T03:09:38;8.60;99.90
32502;DHT22;18952;52.516;13.460;2023-04-01T03:12:05;8.60;99.90
32502;DHT22;18952;52.516;13.460;2023-04-01T03:14:32;8.70;99.90
32502;DHT22;18952;52.516;13.460;2023-04-01T03:16:59;8.70;99.90
32502;DHT22;18952;52.516;13.460;2023-04-01T03:19:26;8.70;99.90
32502;DHT22;18952;52.516;13.460;2023-04-01T03:21:52;8.70;99.90
32502;DHT22;18952;52.516;13.460;2023-04-01T03:24:20;8.70;99.90
32502;DHT22;18952;52.516;13.460;2023-04-01T03:26:47;8.80;99.90
32502;DHT22;18952;52.516;13.460;2023-04-01T03:29:13;8.80;99.90
32502;DHT22;18952;52.516;13.460;2023-04-01T03:31:40;8.80;99.90
32502;DHT22;18952;52.516;13.460;2023-04-01T03:34:07;8.80;99.90
32502;DHT22;18952;52.516;13.460;2023-04-01T03:36:35;8.80;99.90
32502;DHT22;18952;52.516;13.460;2023-04-01T03:39:02;8.80;99.90
32502;DHT22;18952;52.516;13.460;2023-04-01T03:41:29;8.80;99.90
32502;DHT22;18952;52.516;13.460;2023-04-01T03:43:56;8.80;99.90
32502;DHT22;18952;52.516;13.460;2023-04-01T03:46:22;8.80;99.90
32502;DHT22;18952;52.516;13.460;2023-04-01T03:48:49;8.80;99.90
32502;DHT22;18952;52.516;13.460;2023-04-01T03:51:16;8.80;99.90
32502;DHT22;18952;52.516;13.460;2023-04-01T03:53:43;8.80;99.90
32502;DHT22;18952;52.516;13.460;2023-04-01T03:56:10;8.80;99.90
32502;DHT22;18952;52.516;13.460;2023-04-01T03:58:37;8.80;99.90
32502;DHT22;18952;52.516;13.460;2023-04-01T04:01:16;8.80;99.90
32502;DHT22;18952;52.516;13.460;2023-04-01T04:03:46;8.80;99.90
32502;DHT22;18952;52.516;13.460;2023-04-01T04:06:14;8.70;99.90
32502;DHT22;18952;52.516;13.460;2023-04-01T04:08:41;8.70;99.90
32502;DHT22;18952;52.516;13.460;2023-04-01T04:11:08;8.70;99.90
32502;DHT22;18952;52.516;13.460;2023-04-01T04:13:35;8.70;99.90
32502;DHT22;18952;52.516;13.460;2023-04-01T04:16:03;8.70;99.90
32502;DHT22;18952;52.516;13.460;2023-04-01T04:18:29;8.70;99.90
32502;DHT22;18952;52.516;13.460;2023-04-01T04:20:56;8.70;99.90
32502;DHT22;18952;52.516;13.460;2023-04-01T04:23:23;8.70;99.90
32502;DHT22;18952;52.516;13.460;2023-04-01T04:25:57;8.70;99.90
32502;DHT22;18952;52.516;13.460;2023-04-01T04:28:25;8.70;99.90
32502;DHT22;18952;52.516;13.460;2023-04-01T04:30:53;8.70;99.90
32502;DHT22;18952;52.516;13.460;2023-04-01T04:33:20;8.80;99.90
32502;DHT22;18952;52.516;13.460;2023-04-01T04:35:47;8.80;99.90
32502;DHT22;18952;52.516;13.460;2023-04-01T04:38:14;8.80;99.90
32502;DHT22;18952;52.516;13.460;2023-04-01T04:40:41;8.80;99.90
32502;DHT22;18952;52.516;13.460;2023-04-01T04:43:11;8.80;99.90
32502;DHT22;18952;52.516;13.460;2023-04-01T04:45:38;8.80;99.90
32502;DHT22;18952;52.516;13.460;2023-04-01T04:48:06;8.80;99.90
32502;DHT22;18952;52.516;13.460;2023-04-01T04:50:33;8.80;99.90
32502;DHT22;18952;52.516;13.460;2023-04-01T04:53:00;8.80;99.90
32502;DHT22;18952;52.516;13.460;2023-04-01T04:55:27;8.80;99.90
32502;DHT22;18952;52.516;13.460;2023-04-01T04:57:54;8.80;99.90
32502;DHT22;18952;52.516;13.460;2023-04-01T05:00:20;8.80;99.90
32502;DHT22;18952;52.516;13.460;2023-04-01T05:02:47;8.80;99.90
32502;DHT22;18952;52.516;13.460;2023-04-01T05:05:14;8.80;99.90
32502;DHT22;18952;52.516;13.460;2023-04-01T05:07:41;8.80;99.90
32502;DHT22;18952;52.516;13.460;2023-04-01T05:10:08;8.80;99.90
32502;DHT22;18952;52.516;13.460;2023-04-01T05:12:35;8.80;99.90
32502;DHT22;18952;52.516;13.460;2023-04-01T05:15:04;8.80;99.90
32502;DHT22;18952;52.516;13.460;2023-04-01T05:17:31;8.80;99.90
32502;DHT22;18952;52.516;13.460;2023-04-01T05:19:58;8.80;99.90
32502;DHT22;18952;52.516;13.460;2023-04-01T05:22:25;8.80;99.90
32502;DHT22;18952;52.516;13.460;2023-04-01T05:24:51;8.80;99.90
32502;DHT22;18952;52.516;13.460;2023-04-01T05:27:18;8.90;99.90
32502;DHT22;18952;52.516;13.460;2023-04-01T05:29:45;8.80;99.90
32502;DHT22;18952;52.516;13.460;2023-04-01T05:32:12;8.90;99.90
32502;DHT22;18952;52.516;13.460;2023-04-01T05:34:39;8.90;99.90
32502;DHT22;18952;52.516;13.460;2023-04-01T05:37:06;8.80;99.90
32502;DHT22;18952;52.516;13.460;2023-04-01T05:39:39;8.90;99.90
32502;DHT22;18952;52.516;13.460;2023-04-01T05:42:07;8.90;99.90
32502;DHT22;18952;52.516;13.460;2023-04-01T05:44:34;8.90;99.90
32502;DHT22;18952;52.516;13.460;2023-04-01T05:47:02;8.90;99.90
32502;DHT22;18952;52.516;13.460;2023-04-01T05:49:29;8.90;99.90
32502;DHT22;18952;52.516;13.460;2023-04-01T05:51:56;8.90;99.90
32502;DHT22;18952;52.516;13.460;2023-04-01T05:54:23;8.90;99.90
32502;DHT22;18952;52.516;13.460;2023-04-01T05:56:50;8.90;99.90
32502;DHT22;18952;52.516;13.460;2023-04-01T05:59:17;9.00;99.90
32502;DHT22;18952;52.516;13.460;2023-04-01T06:01:44;8.90;99.90
32502;DHT22;18952;52.516;13.460;2023-04-01T06:04:16;8.90;99.90
32502;DHT22;18952;52.516;13.460;2023-04-01T06:06:43;8.90;99.90
32502;DHT22;18952;52.516;13.460;2023-04-01T06:14:34;9.10;99.90
32502;DHT22;18952;52.516;13.460;2023-04-01T06:39:06;9.20;99.90
32502;DHT22;18952;52.516;13.460;2023-04-01T06:41:58;9.20;99.90
32502;DHT22;18952;52.516;13.460;2023-04-01T06:47:28;9.20;99.90
32502;DHT22;18952;52.516;13.460;2023-04-01T06:57:52;9.10;99.90
32502;DHT22;18952;52.516;13.460;2023-04-01T07:00:29;9.10;99.90
32502;DHT22;18952;52.516;13.460;2023-04-01T07:05:34;9.10;99.90
32502;DHT22;18952;52.516;13.460;2023-04-01T07:08:04;9.20;99.90
32502;DHT22;18952;52.516;13.460;2023-04-01T07:13:13;9.30;99.90
32502;DHT22;18952;52.516;13.460;2023-04-01T07:15:44;9.30;99.90
32502;DHT22;18952;52.516;13.460;2023-04-01T07:18:29;9.30;99.90
32502;DHT22;18952;52.516;13.460;2023-04-01T07:20:57;9.40;99.90
32502;DHT22;18952;52.516;13.460;2023-04-01T07:23:38;9.40;99.90
32502;DHT22;18952;52.516;13.460;2023-04-01T07:26:19;9.40;99.90
32502;DHT22;18952;52.516;13.460;2023-04-01T07:28:46;9.40;99.90
32502;DHT22;18952;52.516;13.460;2023-04-01T07:37:18;9.40;99.90
32502;DHT22;18952;52.516;13.460;2023-04-01T07:46:14;9.40;99.90
32502;DHT22;18952;52.516;13.460;2023-04-01T07:48:35;9.50;99.90
32502;DHT22;18952;52.516;13.460;2023-04-01T07:51:11;9.50;99.90
32502;DHT22;18952;52.516;13.460;2023-04-01T07:53:53;9.50;99.90
32502;DHT22;18952;52.516;13.460;2023-04-01T08:07:07;9.60;99.90
32502;DHT22;18952;52.516;13.460;2023-04-01T08:10:13;9.60;99.90
32502;DHT22;18952;52.516;13.460;2023-04-01T08:18:46;9.40;99.90
32502;DHT22;18952;52.516;13.460;2023-04-01T08:21:29;9.40;99.90
32502;DHT22;18952;52.516;13.460;2023-04-01T08:24:10;9.40;99.90
32502;DHT22;18952;52.516;13.460;2023-04-01T08:26:45;9.40;99.90
32502;DHT22;18952;52.516;13.460;2023-04-01T08:29:20;9.40;99.90
32502;DHT22;18952;52.516;13.460;2023-04-01T08:34:38;9.30;99.90
32502;DHT22;18952;52.516;13.460;2023-04-01T08:37:21;9.20;99.90
32502;DHT22;18952;52.516;13.460;2023-04-01T08:39:55;9.30;99.90
32502;DHT22;18952;52.516;13.460;2023-04-01T08:45:56;9.40;99.90
32502;DHT22;18952;52.516;13.460;2023-04-01T08:51:33;9.40;99.90
32502;DHT22;18952;52.516;13.460;2023-04-01T08:54:43;9.40;99.90
32502;DHT22;18952;52.516;13.460;2023-04-01T09:00:19;9.50;99.90
32502;DHT22;18952;52.516;13.460;2023-04-01T09:11:28;9.70;99.90
32502;DHT22;18952;52.516;13.460;2023-04-01T09:14:24;9.80;99.90
32502;DHT22;18952;52.516;13.460;2023-04-01T09:17:33;9.90;99.90
32502;DHT22;18952;52.516;13.460;2023-04-01T09:23:28;10.00;99.90
32502;DHT22;18952;52.516;13.460;2023-04-01T09:40:31;10.00;99.90
32502;DHT22;18952;52.516;13.460;2023-04-01T09:48:42;10.10;99.90
32502;DHT22;18952;52.516;13.460;2023-04-01T09:54:18;10.10;99.90
32502;DHT22;18952;52.516;13.460;2023-04-01T10:25:52;9.50;99.90
32502;DHT22;18952;52.516;13.460;2023-04-01T10:28:56;9.50;99.90
32502;DHT22;18952;52.516;13.460;2023-04-01T11:10:57;9.80;99.90
32502;DHT22;18952;52.516;13.460;2023-04-01T11:33:53;9.70;99.90
32502;DHT22;18952;52.516;13.460;2023-04-01T11:36:29;9.70;99.90
32502;DHT22;18952;52.516;13.460;2023-04-01T11:41:49;9.60;99.90
32502;DHT22;18952;52.516;13.460;2023-04-01T11:44:26;9.60;99.90
32502;DHT22;18952;52.516;13.460;2023-04-01T11:52:55;9.50;99.90
32502;DHT22;18952;52.516;13.460;2023-04-01T11:59:05;9.50;99.90
32502;DHT22;18952;52.516;13.460;2023-04-01T12:04:30;9.50;99.90
32502;DHT22;18952;52.516;13.460;2023-04-01T12:10:05;9.40;99.90
32502;DHT22;18952;52.516;13.460;2023-04-01T12:12:58;9.30;99.90
32502;DHT22;18952;52.516;13.460;2023-04-01T12:19:03;9.30;99.90
32502;DHT22;18952;52.516;13.460;2023-04-01T12:24:23;9.40;99.90
32502;DHT22;18952;52.516;13.460;2023-04-01T12:27:10;9.20;99.90
32502;DHT22;18952;52.516;13.460;2023-04-01T12:47:42;9.10;99.90
32502;DHT22;18952;52.516;13.460;2023-04-01T12:50:46;9.10;99.90
32502;DHT22;18952;52.516;13.460;2023-04-01T13:09:25;9.10;99.90
32502;DHT22;18952;52.516;13.460;2023-04-01T13:12:04;9.10;99.90
32502;DHT22;18952;52.516;13.460;2023-04-01T13:14:39;9.10;99.90
32502;DHT22;18952;52.516;13.460;2023-04-01T13:17:17;9.10;99.90
32502;DHT22;18952;52.516;13.460;2023-04-01T13:27:53;9.10;99.90
32502;DHT22;18952;52.516;13.460;2023-04-01T13:35:26;8.90;99.90
32502;DHT22;18952;52.516;13.460;2023-04-01T13:43:39;8.90;99.90
32502;DHT22;18952;52.516;13.460;2023-04-01T14:01:30;8.50;99.90
32502;DHT22;18952;52.516;13.460;2023-04-01T14:12:50;8.40;99.90
32502;DHT22;18952;52.516;13.460;2023-04-01T14:41:41;8.20;99.90
32502;DHT22;18952;52.516;13.460;2023-04-01T14:47:27;8.10;99.90
32502;DHT22;18952;52.516;13.460;2023-04-01T14:50:25;8.10;99.90
32502;DHT22;18952;52.516;13.460;2023-04-01T14:55:33;8.10;99.90
32502;DHT22;18952;52.516;13.460;2023-04-01T15:01:23;8.00;99.90
32502;DHT22;18952;52.516;13.460;2023-04-01T15:09:49;8.10;99.90
32502;DHT22;18952;52.516;13.460;2023-04-01T15:12:47;8.10;99.90
32502;DHT22;18952;52.516;13.460;2023-04-01T15:29:43;7.70;99.90
32502;DHT22;18952;52.516;13.460;2023-04-01T15:32:24;7.60;99.90
32502;DHT22;18952;52.516;13.460;2023-04-01T15:37:56;7.60;99.90
32502;DHT22;18952;52.516;13.460;2023-04-01T15:40:47;7.60;99.90
32502;DHT22;18952;52.516;13.460;2023-04-01T15:43:40;7.60;99.90
32502;DHT22;18952;52.516;13.460;2023-04-01T15:49:39;7.60;99.90
32502;DHT22;18952;52.516;13.460;2023-04-01T15:52:24;7.60;99.90
32502;DHT22;18952;52.516;13.460;2023-04-01T15:55:11;7.50;99.90
32502;DHT22;18952;52.516;13.460;2023-04-01T15:58:04;7.50;99.90
32502;DHT22;18952;52.516;13.460;2023-04-01T16:01:04;7.50;99.90
32502;DHT22;18952;52.516;13.460;2023-04-01T16:07:01;7.50;99.90
32502;DHT22;18952;52.516;13.460;2023-04-01T16:21:10;7.20;99.90
32502;DHT22;18952;52.516;13.460;2023-04-01T16:26:55;7.10;99.90
32502;DHT22;18952;52.516;13.460;2023-04-01T16:29:48;6.90;99.90
32502;DHT22;18952;52.516;13.460;2023-04-01T16:32:36;6.90;99.90
32502;DHT22;18952;52.516;13.460;2023-04-01T16:38:38;6.70;99.90
32502;DHT22;18952;52.516;13.460;2023-04-01T16:41:25;6.70;99.90
32502;DHT22;18952;52.516;13.460;2023-04-01T16:43:58;6.60;99.90
32502;DHT22;18952;52.516;13.460;2023-04-01T16:47:06;6.50;99.90
32502;DHT22;18952;52.516;13.460;2023-04-01T16:53:09;6.50;99.90
32502;DHT22;18952;52.516;13.460;2023-04-01T16:56:02;6.50;99.90
32502;DHT22;18952;52.516;13.460;2023-04-01T16:58:54;6.50;99.90
32502;DHT22;18952;52.516;13.460;2023-04-01T17:01:27;6.40;99.90
32502;DHT22;18952;52.516;13.460;2023-04-01T17:26:46;6.20;99.90
32502;DHT22;18952;52.516;13.460;2023-04-01T17:29:24;6.10;99.90
32502;DHT22;18952;52.516;13.460;2023-04-01T17:32:31;6.10;99.90
32502;DHT22;18952;52.516;13.460;2023-04-01T17:35:14;6.00;99.90
32502;DHT22;18952;52.516;13.460;2023-04-01T17:38:13;6.00;99.90
32502;DHT22;18952;52.516;13.460;2023-04-01T17:41:06;5.90;99.90
32502;DHT22;18952;52.516;13.460;2023-04-01T17:49:37;5.70;99.90
32502;DHT22;18952;52.516;13.460;2023-04-01T17:57:56;5.70;99.90
32502;DHT22;18952;52.516;13.460;2023-04-01T18:26:33;5.50;99.90
32502;DHT22;18952;52.516;13.460;2023-04-01T18:29:17;5.40;99.90
32502;DHT22;18952;52.516;13.460;2023-04-01T18:47:16;5.20;99.90
32502;DHT22;18952;52.516;13.460;2023-04-01T18:50:21;5.20;99.90
32502;DHT22;18952;52.516;13.460;2023-04-01T18:52:58;5.20;99.90
32502;DHT22;18952;52.516;13.460;2023-04-01T18:55:35;5.20;99.90
32502;DHT22;18952;52.516;13.460;2023-04-01T18:58:21;5.20;99.90
32502;DHT22;18952;52.516;13.460;2023-04-01T19:01:12;5.20;99.90
32502;DHT22;18952;52.516;13.460;2023-04-01T19:03:48;5.20;99.90
32502;DHT22;18952;52.516;13.460;2023-04-01T19:06:35;5.30;99.90
32502;DHT22;18952;52.516;13.460;2023-04-01T19:09:23;5.30;99.90
32502;DHT22;18952;52.516;13.460;2023-04-01T19:17:45;5.30;99.90
32502;DHT22;18952;52.516;13.460;2023-04-01T19:20:24;5.20;99.90
32502;DHT22;18952;52.516;13.460;2023-04-01T19:36:55;4.90;99.90
32502;DHT22;18952;52.516;13.460;2023-04-01T19:50:38;4.80;99.90
32502;DHT22;18952;52.516;13.460;2023-04-01T19:56:17;4.70;99.90
32502;DHT22;18952;52.516;13.460;2023-04-01T19:58:59;4.70;99.90
32502;DHT22;18952;52.516;13.460;2023-04-01T20:04:39;4.70;99.90
32502;DHT22;18952;52.516;13.460;2023-04-01T20:12:37;4.60;99.90
32502;DHT22;18952;52.516;13.460;2023-04-01T20:15:33;4.60;99.90
32502;DHT22;18952;52.516;13.460;2023-04-01T20:18:18;4.70;99.90
32502;DHT22;18952;52.516;13.460;2023-04-01T20:20:59;4.60;99.90
32502;DHT22;18952;52.516;13.460;2023-04-01T20:23:55;4.60;99.90
32502;DHT22;18952;52.516;13.460;2023-04-01T20:26:26;4.60;99.90
32502;DHT22;18952;52.516;13.460;2023-04-01T20:32:38;4.40;99.90
32502;DHT22;18952;52.516;13.460;2023-04-01T20:40:40;4.30;99.90
32502;DHT22;18952;52.516;13.460;2023-04-01T20:52:24;4.30;99.90
32502;DHT22;18952;52.516;13.460;2023-04-01T21:12:01;4.10;99.90
32502;DHT22;18952;52.516;13.460;2023-04-01T21:26:07;4.00;99.90
32502;DHT22;18952;52.516;13.460;2023-04-01T21:28:46;4.00;99.90
32502;DHT22;18952;52.516;13.460;2023-04-01T21:31:26;4.00;99.90
32502;DHT22;18952;52.516;13.460;2023-04-01T21:34:03;4.10;99.90
32502;DHT22;18952;52.516;13.460;2023-04-01T21:45:27;4.00;99.90
32502;DHT22;18952;52.516;13.460;2023-04-01T21:53:55;4.00;99.90
32502;DHT22;18952;52.516;13.460;2023-04-01T22:02:43;3.80;99.90
32502;DHT22;18952;52.516;13.460;2023-04-01T22:13:13;3.80;99.90
32502;DHT22;18952;52.516;13.460;2023-04-01T22:18:54;3.80;99.90
32502;DHT22;18952;52.516;13.460;2023-04-01T22:24:27;3.70;99.90
32502;DHT22;18952;52.516;13.460;2023-04-01T22:27:12;3.70;99.90
32502;DHT22;18952;52.516;13.460;2023-04-01T22:32:44;3.80;99.90
32502;DHT22;18952;52.516;13.460;2023-04-01T22:35:34;3.80;99.90
32502;DHT22;18952;52.516;13.460;2023-04-01T22:43:58;3.70;99.90
32502;DHT22;18952;52.516;13.460;2023-04-01T22:49:17;3.70;99.90
32502;DHT22;18952;52.516;13.460;2023-04-01T22:54:32;3.70;99.90
32502;DHT22;18952;52.516;13.460;2023-04-01T22:57:04;3.60;99.90
32502;DHT22;18952;52.516;13.460;2023-04-01T23:03:11;3.70;99.90
32502;DHT22;18952;52.516;13.460;2023-04-01T23:05:48;3.70;99.90
32502;DHT22;18952;52.516;13.460;2023-04-01T23:11:44;3.70;99.90
32502;DHT22;18952;52.516;13.460;2023-04-01T23:17:12;3.70;99.90
32502;DHT22;18952;52.516;13.460;2023-04-01T23:25:56;3.40;99.90
32502;DHT22;18952;52.516;13.460;2023-04-01T23:31:38;3.40;99.90
32502;DHT22;18952;52.516;13.460;2023-04-01T23:34:23;3.40;99.90
32502;DHT22;18952;52.516;13.460;2023-04-01T23:36:54;3.40;99.90
32502;DHT22;18952;52.516;13.460;2023-04-01T23:39:41;3.40;99.90
32502;DHT22;18952;52.516;13.460;2023-04-01T23:42:19;3.40;99.90
32502;DHT22;18952;52.516;13.460;2023-04-01T23:44:49;3.40;99.90
32502;DHT22;18952;52.516;13.460;2023-04-01T23:47:20;3.40;99.90
32502;DHT22;18952;52.516;13.460;2023-04-01T23:49:56;3.50;99.90
32502;DHT22;18952;52.516;13.460;2023-04-01T23:52:24;3.50;99.90
32502;DHT22;18952;52.516;13.460;2023-04-01T23:54:54;3.40;99.90
32502;DHT22;18952;52.516;13.460;2023-04-01T23:57:27;3.50;99.90
